createdAt,value
2018-07-23T00:02:26.368Z,63.79
2018-07-23T00:04:53.736Z,64.62
2018-07-23T00:07:21.162Z,64.48
2018-07-23T00:09:48.722Z,64.95
2018-07-23T00:12:16.206Z,65.14
2018-07-23T00:14:43.646Z,64.70
2018-07-23T00:17:11.444Z,64.97
2018-07-23T00:19:39.055Z,65.17
2018-07-23T00:22:06.795Z,65.65
2018-07-23T00:24:34.263Z,64.92
2018-07-23T00:27:02.501Z,65.42
2018-07-23T00:29:29.807Z,64.92
2018-07-23T00:31:57.428Z,64.65
2018-07-23T00:34:25.813Z,64.65
2018-07-23T00:36:53.496Z,64.84
2018-07-23T00:39:21.264Z,64.65
2018-07-23T00:41:48.975Z,64.76
2018-07-23T00:44:16.439Z,64.37
2018-07-23T00:46:47.010Z,64.58
2018-07-23T00:49:14.546Z,65.18
2018-07-23T00:51:42.476Z,65.53
2018-07-23T00:54:09.850Z,64.37
2018-07-23T00:56:37.192Z,65.58
2018-07-23T00:59:04.999Z,65.32
2018-07-23T01:01:32.448Z,65.72
2018-07-23T01:04:00.053Z,65.50
2018-07-23T01:06:27.449Z,65.92
2018-07-23T01:08:55.090Z,65.61
2018-07-23T01:11:22.637Z,64.73
2018-07-23T01:13:51.205Z,64.62
2018-07-23T01:16:18.706Z,65.37
2018-07-23T01:18:46.312Z,64.66
2018-07-23T01:21:13.832Z,65.12
2018-07-23T01:23:41.671Z,65.52
2018-07-23T01:26:09.070Z,65.78
2018-07-23T01:28:37.571Z,66.19
2018-07-23T01:31:05.336Z,66.45
2018-07-23T01:33:33.340Z,65.48
2018-07-23T01:36:01.076Z,66.68
2018-07-23T01:38:29.166Z,65.86
2018-07-23T01:40:56.591Z,66.68
2018-07-23T01:43:24.235Z,66.47
2018-07-23T01:45:51.875Z,66.80
2018-07-23T01:48:19.447Z,66.29
2018-07-23T01:50:46.862Z,66.90
2018-07-23T01:53:15.112Z,66.17
2018-07-23T01:55:42.735Z,65.84
2018-07-23T01:58:16.763Z,66.79
2018-07-23T02:00:44.139Z,66.18
2018-07-23T02:03:11.443Z,66.77
2018-07-23T02:05:38.896Z,66.22
2018-07-23T02:08:06.307Z,66.96
2018-07-23T02:10:33.628Z,66.74
2018-07-23T02:13:01.186Z,67.42
2018-07-23T02:15:28.648Z,67.94
2018-07-23T02:17:55.989Z,67.82
2018-07-23T02:20:23.387Z,66.92
2018-07-23T02:22:51.989Z,67.62
2018-07-23T02:25:19.748Z,67.08
2018-07-23T02:27:47.433Z,67.70
2018-07-23T02:30:14.695Z,67.33
2018-07-23T02:32:41.995Z,67.29
2018-07-23T02:35:09.303Z,67.69
2018-07-23T02:37:36.800Z,67.48
2018-07-23T02:40:04.551Z,67.24
2018-07-23T02:42:31.969Z,67.27
2018-07-23T02:44:59.568Z,68.36
2018-07-23T02:47:26.875Z,67.67
2018-07-23T02:49:54.515Z,68.24
2018-07-23T02:52:22.053Z,67.21
2018-07-23T02:54:49.779Z,67.08
2018-07-23T02:57:17.399Z,67.08
2018-07-23T02:59:45.163Z,66.84
2018-07-23T03:02:12.456Z,66.63
2018-07-23T03:04:40.224Z,66.72
2018-07-23T03:07:07.909Z,66.56
2018-07-23T03:09:35.333Z,66.43
2018-07-23T03:12:02.964Z,66.37
2018-07-23T03:14:30.616Z,65.93
2018-07-23T03:16:58.153Z,66.18
2018-07-23T03:19:26.254Z,65.82
2018-07-23T03:21:54.032Z,65.13
2018-07-23T03:24:21.726Z,65.79
2018-07-23T03:26:49.503Z,65.79
2018-07-23T03:29:17.173Z,64.66
2018-07-23T03:31:45.569Z,65.10
2018-07-23T03:34:13.243Z,63.82
2018-07-23T03:36:40.827Z,65.16
2018-07-23T03:39:09.353Z,64.44
2018-07-23T03:41:37.148Z,64.31
2018-07-23T03:44:04.878Z,63.47
2018-07-23T03:46:32.464Z,63.57
2018-07-23T03:49:00.007Z,63.69
2018-07-23T03:51:28.189Z,63.42
2018-07-23T03:53:56.790Z,63.57
2018-07-23T03:56:24.542Z,63.42
2018-07-23T03:58:52.308Z,63.71
2018-07-23T04:01:20.466Z,62.52
2018-07-23T04:03:48.324Z,62.68
2018-07-23T04:06:16.283Z,63.08
2018-07-23T04:08:43.861Z,62.91
2018-07-23T04:11:11.449Z,62.71
2018-07-23T04:13:39.761Z,62.91
2018-07-23T04:16:08.393Z,62.64
2018-07-23T04:18:36.490Z,62.69
2018-07-23T04:21:04.564Z,62.73
2018-07-23T04:23:32.468Z,63.32
2018-07-23T04:26:00.069Z,63.08
2018-07-23T04:28:28.429Z,62.96
2018-07-23T04:30:56.468Z,63.88
2018-07-23T04:33:24.120Z,63.19
2018-07-23T04:35:51.610Z,63.12
2018-07-23T04:38:19.419Z,63.19
2018-07-23T04:40:47.178Z,63.11
2018-07-23T04:43:14.955Z,63.33
2018-07-23T04:45:42.444Z,63.43
2018-07-23T04:48:10.245Z,63.32
2018-07-23T04:50:37.961Z,62.76
2018-07-23T04:53:05.664Z,62.90
2018-07-23T04:55:33.579Z,62.77
2018-07-23T04:58:01.526Z,63.92
2018-07-23T05:00:29.549Z,63.57
2018-07-23T05:02:57.690Z,63.89
2018-07-23T05:05:25.734Z,64.09
2018-07-23T05:07:53.745Z,64.45
2018-07-23T05:12:50.717Z,63.93
2018-07-23T05:15:19.307Z,63.75
2018-07-23T05:17:48.639Z,63.93
2018-07-23T05:20:17.687Z,63.15
2018-07-23T05:22:46.711Z,62.84
2018-07-23T05:25:15.472Z,62.66
2018-07-23T05:27:44.510Z,62.89
2018-07-23T05:30:13.291Z,61.95
2018-07-23T05:32:41.920Z,62.05
2018-07-23T05:35:10.667Z,62.25
2018-07-23T05:37:40.240Z,62.29
2018-07-23T05:40:08.968Z,61.52
2018-07-23T05:42:38.165Z,61.68
2018-07-23T05:45:06.998Z,61.18
2018-07-23T05:47:37.009Z,61.00
2018-07-23T05:50:06.532Z,61.68
2018-07-23T05:52:35.312Z,60.84
2018-07-23T05:55:04.022Z,60.52
2018-07-23T05:57:32.614Z,60.58
2018-07-23T06:00:01.443Z,60.55
2018-07-23T06:02:30.117Z,60.06
2018-07-23T06:04:59.208Z,59.71
2018-07-23T06:07:27.752Z,59.28
2018-07-23T06:09:56.998Z,59.26
2018-07-23T06:12:26.086Z,59.64
2018-07-23T06:14:54.975Z,59.20
2018-07-23T06:17:23.810Z,59.19
2018-07-23T06:19:52.427Z,58.24
2018-07-23T06:22:21.332Z,57.64
2018-07-23T06:24:50.640Z,57.30
2018-07-23T06:27:19.495Z,57.28
2018-07-23T06:29:49.147Z,57.11
2018-07-23T06:32:18.396Z,56.46
2018-07-23T06:34:47.168Z,57.20
2018-07-23T06:37:15.997Z,56.67
2018-07-23T06:39:45.680Z,56.69
2018-07-23T06:42:14.847Z,56.40
2018-07-23T06:44:43.949Z,55.54
2018-07-23T06:47:12.911Z,54.70
2018-07-23T06:49:42.009Z,55.13
2018-07-23T06:52:10.627Z,54.76
2018-07-23T06:54:40.055Z,54.61
2018-07-23T06:57:08.891Z,54.26
2018-07-23T06:59:37.902Z,54.09
2018-07-23T07:02:07.373Z,51.89
2018-07-23T07:04:36.503Z,53.03
2018-07-23T07:07:05.932Z,52.87
2018-07-23T07:09:34.676Z,53.23
2018-07-23T07:12:04.414Z,52.42
2018-07-23T07:14:33.332Z,52.22
2018-07-23T07:17:02.006Z,52.41
2018-07-23T07:19:30.792Z,52.45
2018-07-23T07:22:00.194Z,51.95
2018-07-23T07:24:29.413Z,51.83
2018-07-23T07:26:58.135Z,52.59
2018-07-23T07:29:26.965Z,51.13
2018-07-23T07:31:55.922Z,50.41
2018-07-23T07:34:24.918Z,51.91
2018-07-23T07:36:54.098Z,51.41
2018-07-23T07:39:24.008Z,51.68
2018-07-23T07:41:52.880Z,51.33
2018-07-23T07:44:21.911Z,51.40
2018-07-23T07:46:51.258Z,50.79
2018-07-23T07:49:20.038Z,51.31
2018-07-23T07:51:48.922Z,50.31
2018-07-23T07:54:17.588Z,49.98
2018-07-23T07:56:46.697Z,50.17
2018-07-23T07:59:19.926Z,50.47
2018-07-23T08:01:48.975Z,49.37
2018-07-23T08:04:17.592Z,50.14
2018-07-23T08:06:46.172Z,49.50
2018-07-23T08:09:19.611Z,50.29
2018-07-23T08:11:48.697Z,50.01
2018-07-23T08:14:17.498Z,49.31
2018-07-23T08:16:46.291Z,49.42
2018-07-23T08:19:14.852Z,49.27
2018-07-23T08:21:43.609Z,50.16
2018-07-23T08:24:12.464Z,49.16
2018-07-23T08:26:41.161Z,49.09
2018-07-23T08:29:10.024Z,49.68
2018-07-23T08:31:38.682Z,49.44
2018-07-23T08:34:11.738Z,49.27
2018-07-23T08:36:40.550Z,48.78
2018-07-23T08:39:11.268Z,49.11
2018-07-23T08:41:40.058Z,48.96
2018-07-23T08:44:09.870Z,48.37
2018-07-23T08:46:38.485Z,48.67
2018-07-23T08:49:07.264Z,48.02
2018-07-23T08:51:36.141Z,46.79
2018-07-23T08:54:05.200Z,46.75
2018-07-23T08:56:34.108Z,46.69
2018-07-23T08:59:03.780Z,46.98
2018-07-23T09:01:32.564Z,47.21
2018-07-23T09:04:01.576Z,46.92
2018-07-23T09:06:30.392Z,46.14
2018-07-23T09:08:59.431Z,47.08
2018-07-23T09:11:28.195Z,46.51
2018-07-23T09:13:56.831Z,46.58
2018-07-23T09:16:25.755Z,46.10
2018-07-23T09:18:54.523Z,45.63
2018-07-23T09:21:23.309Z,47.05
2018-07-23T09:23:52.180Z,46.81
2018-07-23T09:26:20.923Z,46.55
2018-07-23T09:28:49.621Z,45.58
2018-07-23T09:31:23.552Z,46.42
2018-07-23T09:33:52.414Z,46.66
2018-07-23T09:36:21.005Z,45.68
2018-07-23T09:38:50.110Z,46.31
2018-07-23T09:41:18.816Z,46.26
2018-07-23T09:43:48.534Z,45.24
2018-07-23T09:46:17.290Z,45.04
2018-07-23T09:48:45.923Z,45.97
2018-07-23T09:51:14.770Z,44.98
2018-07-23T09:53:43.531Z,44.03
2018-07-23T09:56:12.666Z,44.51
2018-07-23T09:58:41.783Z,44.53
2018-07-23T10:01:11.969Z,43.61
2018-07-23T10:03:41.956Z,43.32
2018-07-23T10:06:11.310Z,43.89
2018-07-23T10:08:40.249Z,41.87
2018-07-23T10:11:09.081Z,41.95
2018-07-23T10:13:38.290Z,42.66
2018-07-23T10:16:07.583Z,43.46
2018-07-23T10:18:36.292Z,42.53
2018-07-23T10:21:05.292Z,43.07
2018-07-23T10:23:34.620Z,41.30
2018-07-23T10:26:03.398Z,40.07
2018-07-23T10:28:32.784Z,39.89
2018-07-23T10:31:01.833Z,40.37
2018-07-23T10:33:31.069Z,40.56
2018-07-23T10:35:59.880Z,41.17
2018-07-23T10:38:28.667Z,42.26
2018-07-23T10:40:57.893Z,41.50
2018-07-23T10:43:27.329Z,41.71
2018-07-23T10:45:56.886Z,41.35
2018-07-23T10:48:25.895Z,41.51
2018-07-23T10:50:54.556Z,42.38
2018-07-23T10:53:24.525Z,41.92
2018-07-23T10:55:54.747Z,40.76
2018-07-23T10:58:23.941Z,41.12
2018-07-23T11:00:52.991Z,41.82
2018-07-23T11:03:21.859Z,41.74
2018-07-23T11:05:50.688Z,41.58
2018-07-23T11:08:19.629Z,42.26
2018-07-23T11:10:49.098Z,42.21
2018-07-23T11:13:17.981Z,40.51
2018-07-23T11:15:46.790Z,39.57
2018-07-23T11:18:15.980Z,39.48
2018-07-23T11:20:45.172Z,39.01
2018-07-23T11:23:14.518Z,39.37
2018-07-23T11:25:43.362Z,40.02
2018-07-23T11:28:12.549Z,39.19
2018-07-23T11:30:41.630Z,38.65
2018-07-23T11:33:10.433Z,39.68
2018-07-23T11:35:39.087Z,39.51
2018-07-23T11:38:07.911Z,39.73
2018-07-23T11:40:36.820Z,39.68
2018-07-23T11:43:06.320Z,40.72
2018-07-23T11:45:35.330Z,39.44
2018-07-23T11:48:04.264Z,39.05
2018-07-23T11:50:32.908Z,40.00
2018-07-23T11:53:01.756Z,40.10
2018-07-23T11:55:30.548Z,39.83
2018-07-23T11:57:59.287Z,39.17
2018-07-23T12:00:28.080Z,39.80
2018-07-23T12:02:57.203Z,38.80
2018-07-23T12:05:26.097Z,38.24
2018-07-23T12:07:55.006Z,36.20
2018-07-23T12:10:23.673Z,35.16
2018-07-23T12:12:52.548Z,34.76
2018-07-23T12:15:21.139Z,34.85
2018-07-23T12:17:50.333Z,32.85
2018-07-23T12:20:19.399Z,34.07
2018-07-23T12:22:48.137Z,33.08
2018-07-23T12:25:17.347Z,31.78
2018-07-23T12:27:46.257Z,30.73
2018-07-23T12:30:15.778Z,31.28
2018-07-23T12:32:44.476Z,31.08
2018-07-23T12:35:13.141Z,31.45
2018-07-23T12:37:42.008Z,30.95
2018-07-23T12:40:10.704Z,31.84
2018-07-23T12:42:39.769Z,30.91
2018-07-23T12:45:08.454Z,31.99
2018-07-23T12:47:37.684Z,32.60
2018-07-23T12:50:07.358Z,31.52
2018-07-23T12:52:36.137Z,29.75
2018-07-23T12:55:04.948Z,29.72
2018-07-23T12:57:34.257Z,29.21
2018-07-23T13:00:03.035Z,31.00
2018-07-23T13:02:31.672Z,32.30
2018-07-23T13:05:00.492Z,32.83
2018-07-23T13:07:29.458Z,32.47
2018-07-23T13:09:58.527Z,33.48
2018-07-23T13:12:27.821Z,32.74
2018-07-23T13:14:56.942Z,33.80
2018-07-23T13:17:25.568Z,34.64
2018-07-23T13:19:54.277Z,34.82
2018-07-23T13:22:23.520Z,34.41
2018-07-23T13:24:52.624Z,33.12
2018-07-23T13:27:21.958Z,33.64
2018-07-23T13:29:50.992Z,32.23
2018-07-23T13:32:20.319Z,30.75
2018-07-23T13:34:49.053Z,31.31
2018-07-23T13:37:18.022Z,28.79
2018-07-23T13:39:47.052Z,29.35
2018-07-23T13:42:15.852Z,29.03
2018-07-23T13:44:44.457Z,29.39
2018-07-23T13:47:13.200Z,28.50
2018-07-23T13:49:44.956Z,30.50
2018-07-23T13:52:14.980Z,31.80
2018-07-23T13:54:46.344Z,31.45
2018-07-23T13:57:15.658Z,30.83
2018-07-23T13:59:44.892Z,30.66
2018-07-23T14:02:13.665Z,30.96
2018-07-23T14:04:42.721Z,31.48
2018-07-23T14:07:12.059Z,31.60
2018-07-23T14:09:40.985Z,33.17
2018-07-23T14:12:10.016Z,32.85
2018-07-23T14:14:38.832Z,32.37
2018-07-23T14:17:07.632Z,30.88
2018-07-23T14:19:37.047Z,29.12
2018-07-23T14:22:08.762Z,26.77
2018-07-23T14:24:38.021Z,25.47
2018-07-23T14:27:06.929Z,24.06
2018-07-23T14:29:36.036Z,24.82
2018-07-23T14:32:05.132Z,26.52
2018-07-23T14:34:34.147Z,28.14
2018-07-23T14:37:03.892Z,29.19
2018-07-23T14:39:33.500Z,30.82
2018-07-23T14:42:02.739Z,31.59
2018-07-23T14:44:31.426Z,32.20
2018-07-23T14:47:00.630Z,28.94
2018-07-23T14:49:29.709Z,28.30
2018-07-23T14:51:58.829Z,29.57
2018-07-23T14:54:28.245Z,30.24
2018-07-23T14:56:57.117Z,31.27
2018-07-23T14:59:26.662Z,32.57
2018-07-23T15:01:56.635Z,32.61
2018-07-23T15:04:25.699Z,33.61
2018-07-23T15:06:54.795Z,32.80
2018-07-23T15:09:23.855Z,32.53
2018-07-23T15:11:52.722Z,34.27
2018-07-23T15:14:22.162Z,33.97
2018-07-23T15:16:51.806Z,34.36
2018-07-23T15:19:23.091Z,35.19
2018-07-23T15:21:52.293Z,35.84
2018-07-23T15:24:21.273Z,36.89
2018-07-23T15:26:50.962Z,36.06
2018-07-23T15:29:20.281Z,36.17
2018-07-23T15:31:49.395Z,36.41
2018-07-23T15:34:19.256Z,35.63
2018-07-23T15:36:48.486Z,35.53
2018-07-23T15:39:17.425Z,35.80
2018-07-23T15:41:47.181Z,35.48
2018-07-23T15:44:16.134Z,35.48
2018-07-23T15:46:45.281Z,34.19
2018-07-23T15:49:13.929Z,30.18
2018-07-23T15:51:42.959Z,27.42
2018-07-23T15:54:11.670Z,25.74
2018-07-23T15:56:40.570Z,24.31
2018-07-23T15:59:09.606Z,23.35
2018-07-23T16:01:38.464Z,21.44
2018-07-23T16:04:07.541Z,21.47
2018-07-23T16:06:42.888Z,21.25
2018-07-23T16:09:14.215Z,20.76
2018-07-23T16:11:43.989Z,20.86
2018-07-23T16:14:13.039Z,20.35
2018-07-23T16:16:41.888Z,21.98
2018-07-23T16:19:10.683Z,21.60
2018-07-23T16:21:39.521Z,21.19
2018-07-23T16:24:08.322Z,21.02
2018-07-23T16:26:37.078Z,20.12
2018-07-23T16:29:06.640Z,19.20
2018-07-23T16:31:35.403Z,19.61
2018-07-23T16:34:04.057Z,19.65
2018-07-23T16:36:32.926Z,19.11
2018-07-23T16:39:01.577Z,19.02
2018-07-23T16:41:30.461Z,19.83
2018-07-23T16:43:59.048Z,20.91
2018-07-23T16:46:27.673Z,21.16
2018-07-23T16:48:56.433Z,21.07
2018-07-23T16:51:25.257Z,21.48
2018-07-23T16:53:54.200Z,22.34
2018-07-23T16:56:22.940Z,23.39
2018-07-23T16:58:51.782Z,24.45
2018-07-23T17:01:21.154Z,26.10
2018-07-23T17:03:49.612Z,28.76
2018-07-23T17:06:18.147Z,29.32
2018-07-23T17:08:46.584Z,29.86
2018-07-23T17:11:15.147Z,30.48
2018-07-23T17:13:47.134Z,31.85
2018-07-23T17:16:16.332Z,32.63
2018-07-23T17:18:50.337Z,32.47
2018-07-23T17:21:20.393Z,32.69
2018-07-23T17:23:49.158Z,34.22
2018-07-23T17:26:18.004Z,34.73
2018-07-23T17:28:46.736Z,34.54
2018-07-23T17:31:15.360Z,34.94
2018-07-23T17:33:44.183Z,35.17
2018-07-23T17:36:12.899Z,34.99
2018-07-23T17:38:41.540Z,34.58
2018-07-23T17:41:10.472Z,34.69
2018-07-23T17:43:39.194Z,36.33
2018-07-23T17:46:08.403Z,36.04
2018-07-23T18:08:47.271Z,36.72
2018-07-23T18:11:16.703Z,37.55
2018-07-23T18:13:46.553Z,36.53
2018-07-23T18:16:15.694Z,36.83
2018-07-23T18:18:45.599Z,36.74
2018-07-23T18:21:15.573Z,37.36
2018-07-23T18:23:44.538Z,38.19
2018-07-23T18:26:13.138Z,38.54
2018-07-23T18:28:42.502Z,38.63
2018-07-23T18:31:11.334Z,38.35
2018-07-23T18:33:39.996Z,38.41
2018-07-23T18:36:08.929Z,38.57
2018-07-23T18:38:38.934Z,38.54
2018-07-23T18:41:07.876Z,38.22
2018-07-23T18:43:37.431Z,40.08
2018-07-23T18:46:06.687Z,40.40
2018-07-23T18:49:45.763Z,40.29
2018-07-23T18:52:15.257Z,40.80
2018-07-23T18:54:45.403Z,41.38
2018-07-23T18:57:14.195Z,42.11
2018-07-23T18:59:42.939Z,41.89
2018-07-23T19:02:13.017Z,41.92
2018-07-23T19:04:41.625Z,42.34
2018-07-23T19:07:10.428Z,42.91
2018-07-23T19:09:39.262Z,43.23
2018-07-23T19:12:08.967Z,43.94
2018-07-23T19:14:37.670Z,43.10
2018-07-23T19:17:07.919Z,43.52
2018-07-23T19:19:36.979Z,44.65
2018-07-23T19:22:05.995Z,44.31
2018-07-23T19:24:38.563Z,46.05
2018-07-23T19:27:07.272Z,44.96
2018-07-23T19:29:36.635Z,45.50
2018-07-23T19:32:05.502Z,46.08
2018-07-23T19:34:34.729Z,47.63
2018-07-23T19:37:04.114Z,48.29
2018-07-23T19:39:34.640Z,48.59
2018-07-23T19:42:03.484Z,48.43
2018-07-23T19:44:32.627Z,48.70
2018-07-23T19:47:01.557Z,48.57
2018-07-23T19:49:30.459Z,49.32
2018-07-23T19:51:59.239Z,49.32
2018-07-23T19:54:27.945Z,48.97
2018-07-23T19:56:56.646Z,48.76
2018-07-23T19:59:25.426Z,49.12
2018-07-23T20:01:54.098Z,49.36
2018-07-23T20:04:23.127Z,50.17
2018-07-23T20:06:52.044Z,50.15
2018-07-23T20:09:20.827Z,49.98
2018-07-23T20:11:49.323Z,51.50
2018-07-23T20:14:18.100Z,51.17
2018-07-23T20:16:46.724Z,51.49
2018-07-23T20:19:15.251Z,51.27
2018-07-23T20:21:43.729Z,52.24
2018-07-23T20:24:12.237Z,51.43
2018-07-23T20:26:40.754Z,50.93
2018-07-23T20:29:09.376Z,52.02
2018-07-23T20:31:37.986Z,51.03
2018-07-23T20:34:06.708Z,51.52
2018-07-23T20:36:35.342Z,51.80
2018-07-23T20:39:04.278Z,51.07
2018-07-23T20:41:32.958Z,52.20
2018-07-23T20:44:01.817Z,51.69
2018-07-23T20:46:30.335Z,51.83
2018-07-23T20:48:58.829Z,52.49
2018-07-23T20:51:27.563Z,52.08
2018-07-23T20:53:56.112Z,52.07
2018-07-23T20:56:24.616Z,52.37
2018-07-23T20:58:53.121Z,52.46
2018-07-23T21:01:21.701Z,51.38
2018-07-23T21:03:50.546Z,52.94
2018-07-23T21:06:19.371Z,52.95
2018-07-23T21:08:48.065Z,53.36
2018-07-23T21:11:16.593Z,54.29
2018-07-23T21:13:45.107Z,53.95
2018-07-23T21:16:13.572Z,54.20
2018-07-23T21:18:42.167Z,54.50
2018-07-23T21:21:10.637Z,53.74
2018-07-23T21:23:39.538Z,54.49
2018-07-23T21:26:08.176Z,54.90
2018-07-23T21:28:36.829Z,54.12
2018-07-23T21:31:05.429Z,54.99
2018-07-23T21:33:34.137Z,54.54
2018-07-23T21:36:02.618Z,54.29
2018-07-23T21:38:31.103Z,55.20
2018-07-23T21:40:59.865Z,55.38
2018-07-23T21:43:28.312Z,55.36
2018-07-23T21:45:56.808Z,54.75
2018-07-23T21:48:25.635Z,55.11
2018-07-23T21:50:54.232Z,55.85
2018-07-23T21:53:22.938Z,55.22
2018-07-23T21:55:51.446Z,56.03
2018-07-23T21:58:19.912Z,56.17
2018-07-23T22:00:48.592Z,55.50
2018-07-23T22:03:17.090Z,56.47
2018-07-23T22:05:45.615Z,57.03
2018-07-23T22:08:14.153Z,56.42
2018-07-23T22:10:43.453Z,56.25
2018-07-23T22:13:12.087Z,57.09
2018-07-23T22:15:40.774Z,56.35
2018-07-23T22:18:09.265Z,56.49
2018-07-23T22:20:37.723Z,56.30
2018-07-23T22:23:06.500Z,56.62
2018-07-23T22:25:34.919Z,57.13
2018-07-23T22:28:03.313Z,57.85
2018-07-23T22:30:31.849Z,57.85
2018-07-23T22:33:00.368Z,57.61
2018-07-23T22:35:28.828Z,57.44
2018-07-23T22:37:57.304Z,57.86
2018-07-23T22:40:25.900Z,57.50
2018-07-23T22:42:54.374Z,57.92
2018-07-23T22:45:23.081Z,57.74
2018-07-23T22:47:51.592Z,57.79
2018-07-23T22:50:20.160Z,58.77
2018-07-23T22:52:48.609Z,57.86
2018-07-23T22:55:17.196Z,59.07
2018-07-23T22:57:45.645Z,58.36
2018-07-23T23:00:14.086Z,59.26
2018-07-23T23:02:43.394Z,58.85
2018-07-23T23:05:12.321Z,59.00
2018-07-23T23:07:41.169Z,58.85
2018-07-23T23:10:09.632Z,59.59
2018-07-23T23:12:38.048Z,59.37
2018-07-23T23:15:06.638Z,59.87
2018-07-23T23:17:35.231Z,60.28
2018-07-23T23:20:03.728Z,60.32
2018-07-23T23:22:32.316Z,59.65
2018-07-23T23:25:07.312Z,60.31
2018-07-23T23:27:35.855Z,59.69
2018-07-23T23:30:04.356Z,60.24
2018-07-23T23:32:32.819Z,60.13
2018-07-23T23:35:01.336Z,60.52
2018-07-23T23:37:29.939Z,60.26
2018-07-23T23:39:58.349Z,60.45
2018-07-23T23:42:26.799Z,60.85
2018-07-23T23:44:55.315Z,61.57
2018-07-23T23:47:23.960Z,61.32
2018-07-23T23:49:52.432Z,61.66
2018-07-23T23:52:21.098Z,61.16
2018-07-23T23:54:49.493Z,61.86
2018-07-23T23:57:18.170Z,61.86
2018-07-23T23:59:46.696Z,61.39
